createdAt,value
2018-07-28T00:00:18.498Z,2.03
2018-07-28T00:02:46.111Z,1.80
2018-07-28T00:05:13.759Z,1.80
2018-07-28T00:07:41.777Z,2.00
2018-07-28T00:10:11.555Z,2.00
2018-07-28T00:12:39.344Z,1.53
2018-07-28T00:15:08.710Z,1.77
2018-07-28T00:17:36.372Z,1.70
2018-07-28T00:20:05.069Z,2.20
2018-07-28T00:22:32.655Z,1.70
2018-07-28T00:25:00.272Z,1.73
2018-07-28T00:27:27.833Z,1.87
2018-07-28T00:29:55.418Z,1.70
2018-07-28T00:32:23.597Z,1.70
2018-07-28T00:34:51.139Z,2.07
2018-07-28T00:37:18.768Z,1.90
2018-07-28T00:39:46.428Z,2.07
2018-07-28T00:42:14.128Z,2.03
2018-07-28T00:44:44.013Z,2.00
2018-07-28T00:47:13.868Z,2.10
2018-07-28T00:49:46.020Z,2.03
2018-07-28T00:52:13.594Z,2.07
2018-07-28T00:54:41.191Z,2.30
2018-07-28T00:57:09.357Z,2.10
2018-07-28T00:59:37.204Z,4.37
2018-07-28T01:02:04.874Z,3.40
2018-07-28T01:04:32.575Z,2.40
2018-07-28T01:07:00.199Z,2.63
2018-07-28T01:09:27.825Z,2.83
2018-07-28T01:11:56.997Z,2.40
2018-07-28T01:14:24.660Z,2.50
2018-07-28T01:16:52.298Z,2.90
2018-07-28T01:19:19.992Z,2.23
2018-07-28T01:21:47.623Z,2.13
2018-07-28T01:24:15.299Z,2.20
2018-07-28T01:26:42.988Z,2.77
2018-07-28T01:29:17.840Z,2.43
2018-07-28T01:31:46.755Z,2.47
2018-07-28T01:34:14.303Z,2.77
2018-07-28T01:36:41.904Z,2.70
2018-07-28T01:39:11.808Z,1.97
2018-07-28T01:41:39.824Z,2.10
2018-07-28T01:44:07.840Z,2.30
2018-07-28T01:46:35.422Z,2.33
2018-07-28T01:49:03.284Z,2.30
2018-07-28T01:51:30.859Z,2.37
2018-07-28T01:53:58.396Z,2.17
2018-07-28T01:56:26.018Z,2.30
2018-07-28T01:58:53.592Z,2.23
2018-07-28T02:01:21.133Z,1.90
2018-07-28T02:03:48.696Z,2.03
2018-07-28T02:06:16.329Z,2.23
2018-07-28T02:08:43.935Z,2.10
2018-07-28T02:11:11.531Z,2.27
2018-07-28T02:13:39.480Z,2.00
2018-07-28T02:16:07.105Z,2.53
2018-07-28T02:18:34.664Z,2.77
2018-07-28T02:21:02.544Z,2.17
2018-07-28T02:23:30.172Z,2.60
2018-07-28T02:25:57.803Z,2.30
2018-07-28T02:28:25.386Z,2.30
2018-07-28T02:30:53.104Z,1.50
2018-07-28T02:33:20.666Z,2.00
2018-07-28T02:35:48.239Z,2.27
2018-07-28T02:38:16.413Z,2.37
2018-07-28T02:40:43.992Z,1.90
2018-07-28T02:43:11.571Z,2.30
2018-07-28T02:45:39.198Z,2.17
2018-07-28T02:48:07.103Z,2.37
2018-07-28T02:50:34.896Z,2.97
2018-07-28T02:53:02.786Z,1.87
2018-07-28T02:55:30.396Z,2.50
2018-07-28T02:57:58.116Z,1.90
2018-07-28T03:00:25.719Z,1.80
2018-07-28T03:02:53.329Z,2.17
2018-07-28T03:05:21.120Z,2.47
2018-07-28T03:07:48.804Z,1.90
2018-07-28T03:10:16.510Z,1.90
2018-07-28T03:12:44.100Z,2.00
2018-07-28T03:15:27.196Z,1.90
2018-07-28T03:17:54.829Z,1.87
2018-07-28T03:20:22.980Z,2.40
2018-07-28T03:22:51.194Z,3.00
2018-07-28T03:25:18.760Z,3.30
2018-07-28T03:27:46.639Z,3.40
2018-07-28T03:30:14.672Z,3.57
2018-07-28T03:32:42.614Z,4.13
2018-07-28T03:35:10.251Z,3.43
2018-07-28T03:37:37.889Z,6.00
2018-07-28T03:40:05.614Z,7.00
2018-07-28T03:42:33.932Z,6.50
2018-07-28T03:45:01.764Z,6.20
2018-07-28T03:47:29.476Z,4.37
2018-07-28T03:49:57.251Z,4.60
2018-07-28T03:52:24.812Z,4.20
2018-07-28T03:54:52.964Z,4.80
2018-07-28T03:57:20.544Z,3.60
2018-07-28T03:59:48.154Z,3.50
2018-07-28T04:02:15.787Z,3.40
2018-07-28T04:04:43.468Z,2.60
2018-07-28T04:07:11.258Z,2.60
2018-07-28T04:09:38.963Z,3.10
2018-07-28T04:12:06.656Z,2.30
2018-07-28T04:14:34.236Z,3.00
2018-07-28T04:17:01.869Z,2.27
2018-07-28T04:19:29.482Z,2.77
2018-07-28T04:21:57.271Z,2.67
2018-07-28T04:24:24.899Z,2.60
2018-07-28T04:26:52.572Z,3.20
2018-07-28T04:29:20.207Z,2.20
2018-07-28T04:31:47.803Z,2.40
2018-07-28T04:34:15.395Z,2.80
2018-07-28T04:36:43.040Z,3.10
2018-07-28T04:39:12.408Z,2.50
2018-07-28T04:41:40.521Z,2.17
2018-07-28T04:44:08.342Z,2.90
2018-07-28T04:46:36.520Z,2.20
2018-07-28T04:49:04.426Z,4.07
2018-07-28T04:51:32.086Z,5.03
2018-07-28T04:53:59.736Z,3.83
2018-07-28T04:56:27.317Z,3.47
2018-07-28T04:58:54.883Z,2.90
2018-07-28T05:01:22.505Z,2.43
2018-07-28T05:03:50.108Z,2.43
2018-07-28T05:06:17.793Z,1.90
2018-07-28T05:08:45.367Z,1.60
2018-07-28T05:11:13.057Z,1.90
2018-07-28T05:13:40.653Z,3.50
2018-07-28T05:16:08.407Z,3.87
2018-07-28T05:18:36.204Z,4.63
2018-07-28T05:21:04.061Z,4.50
2018-07-28T05:23:31.663Z,4.80
2018-07-28T05:25:59.212Z,3.60
2018-07-28T05:28:26.854Z,3.07
2018-07-28T05:30:54.463Z,3.80
2018-07-28T05:33:22.068Z,3.60
2018-07-28T05:35:49.628Z,4.67
2018-07-28T05:38:17.670Z,4.70
2018-07-28T05:40:45.254Z,4.20
2018-07-28T05:43:12.919Z,3.90
2018-07-28T05:45:40.584Z,4.83
2018-07-28T05:48:08.147Z,3.83
2018-07-28T05:50:36.268Z,3.90
2018-07-28T05:53:03.957Z,4.73
2018-07-28T05:55:31.689Z,4.73
2018-07-28T05:57:59.634Z,3.80
2018-07-28T06:00:27.326Z,4.43
2018-07-28T06:02:54.963Z,4.37
2018-07-28T06:05:22.666Z,3.20
2018-07-28T06:07:51.372Z,3.70
2018-07-28T06:10:19.011Z,4.23
2018-07-28T06:12:46.648Z,3.80
2018-07-28T06:15:14.242Z,3.30
2018-07-28T06:17:41.849Z,3.70
2018-07-28T06:20:09.575Z,3.33
2018-07-28T06:22:37.532Z,4.03
2018-07-28T06:25:05.937Z,5.17
2018-07-28T06:27:33.506Z,4.83
2018-07-28T06:30:05.359Z,4.23
2018-07-28T06:32:33.544Z,4.30
2018-07-28T06:35:01.149Z,3.60
2018-07-28T06:37:30.741Z,4.70
2018-07-28T06:39:59.373Z,5.57
2018-07-28T06:42:37.283Z,4.80
2018-07-28T06:45:05.363Z,4.30
2018-07-28T06:47:34.055Z,3.53
2018-07-28T06:50:01.737Z,3.60
2018-07-28T06:52:29.392Z,4.37
2018-07-28T06:54:57.167Z,3.57
2018-07-28T06:57:24.773Z,3.90
2018-07-28T06:59:52.650Z,5.20
2018-07-28T07:02:20.215Z,4.03
2018-07-28T07:04:47.865Z,4.00
2018-07-28T07:07:15.673Z,4.20
2018-07-28T07:09:43.407Z,3.53
2018-07-28T07:12:11.033Z,3.60
2018-07-28T07:14:38.708Z,3.73
2018-07-28T07:17:06.508Z,4.70
2018-07-28T07:19:34.133Z,4.80
2018-07-28T07:22:01.727Z,4.30
2018-07-28T07:24:29.292Z,4.03
2018-07-28T07:26:57.102Z,4.33
2018-07-28T07:29:24.675Z,3.63
2018-07-28T07:31:52.246Z,3.63
2018-07-28T07:34:19.806Z,4.37
2018-07-28T07:36:47.547Z,3.57
2018-07-28T07:39:15.097Z,4.27
2018-07-28T07:41:43.764Z,4.63
2018-07-28T07:44:11.352Z,4.10
2018-07-28T07:46:39.067Z,3.90
2018-07-28T07:49:06.888Z,4.33
2018-07-28T07:51:34.569Z,3.83
2018-07-28T07:54:02.322Z,4.47
2018-07-28T07:56:29.931Z,4.13
2018-07-28T07:58:57.584Z,3.85
2018-07-28T08:01:25.322Z,3.27
2018-07-28T08:03:53.292Z,3.60
2018-07-28T08:06:20.884Z,4.10
2018-07-28T08:08:50.122Z,3.47
2018-07-28T08:11:17.880Z,3.45
2018-07-28T08:13:45.487Z,3.70
2018-07-28T08:16:13.155Z,3.50
2018-07-28T08:18:40.783Z,3.47
2018-07-28T08:21:08.479Z,3.65
2018-07-28T08:23:37.786Z,3.37
2018-07-28T08:26:05.469Z,4.08
2018-07-28T08:28:33.285Z,4.15
2018-07-28T08:31:00.931Z,3.42
2018-07-28T08:33:28.822Z,4.12
2018-07-28T08:35:56.869Z,4.00
2018-07-28T08:38:24.500Z,4.20
2018-07-28T08:40:52.226Z,4.12
2018-07-28T08:43:19.817Z,3.92
2018-07-28T08:45:47.571Z,3.92
2018-07-28T08:48:15.173Z,3.80
2018-07-28T08:50:48.305Z,4.00
2018-07-28T08:53:19.212Z,3.62
2018-07-28T08:55:46.827Z,4.12
2018-07-28T08:58:14.771Z,4.30
2018-07-28T09:00:42.372Z,4.40
2018-07-28T09:03:09.949Z,4.97
2018-07-28T09:05:37.572Z,4.25
2018-07-28T09:08:05.331Z,5.22
2018-07-28T09:10:32.951Z,4.37
2018-07-28T09:13:00.715Z,4.50
2018-07-28T09:15:28.282Z,4.50
2018-07-28T09:17:56.171Z,4.25
2018-07-28T09:20:23.863Z,4.22
2018-07-28T09:22:51.520Z,4.03
2018-07-28T09:25:19.095Z,4.37
2018-07-28T09:27:46.650Z,3.90
2018-07-28T09:30:14.235Z,4.03
2018-07-28T09:32:41.979Z,4.85
2018-07-28T09:35:09.491Z,3.87
2018-07-28T09:37:37.127Z,4.17
2018-07-28T09:40:05.025Z,4.33
2018-07-28T09:42:32.631Z,3.87
2018-07-28T09:45:00.323Z,3.72
2018-07-28T09:47:27.961Z,3.50
2018-07-28T09:49:55.605Z,3.67
2018-07-28T09:52:23.255Z,2.95
2018-07-28T09:54:52.188Z,3.02
2018-07-28T09:57:19.873Z,3.17
2018-07-28T09:59:47.796Z,3.17
2018-07-28T10:02:15.416Z,3.43
2018-07-28T10:04:43.316Z,3.27
2018-07-28T10:07:10.970Z,2.70
2018-07-28T10:09:38.560Z,3.17
2018-07-28T10:12:06.200Z,3.30
2018-07-28T10:14:33.842Z,3.43
2018-07-28T10:17:01.806Z,2.73
2018-07-28T10:19:29.364Z,3.50
2018-07-28T10:21:57.422Z,3.50
2018-07-28T10:24:25.002Z,3.00
2018-07-28T10:26:52.623Z,2.90
2018-07-28T10:29:20.162Z,3.13
2018-07-28T10:31:47.716Z,3.90
2018-07-28T10:34:15.311Z,3.43
2018-07-28T10:36:43.802Z,4.20
2018-07-28T10:39:12.998Z,3.23
2018-07-28T10:41:40.834Z,3.83
2018-07-28T10:44:08.428Z,3.70
2018-07-28T10:46:36.640Z,4.30
2018-07-28T10:49:04.393Z,3.67
2018-07-28T10:51:31.966Z,3.47
2018-07-28T10:53:59.556Z,3.50
2018-07-28T10:56:27.163Z,3.47
2018-07-28T10:59:00.159Z,3.40
2018-07-28T11:01:27.769Z,3.70
2018-07-28T11:03:55.331Z,3.37
2018-07-28T11:06:23.290Z,2.90
2018-07-28T11:08:50.774Z,2.87
2018-07-28T11:11:18.364Z,3.10
2018-07-28T11:13:45.968Z,3.08
2018-07-28T11:16:13.968Z,3.52
2018-07-28T11:18:43.903Z,2.90
2018-07-28T11:21:11.867Z,3.70
2018-07-28T11:23:51.195Z,3.50
2018-07-28T11:26:18.893Z,3.00
2018-07-28T11:28:46.491Z,3.70
2018-07-28T11:31:25.775Z,3.90
2018-07-28T11:34:04.892Z,3.87
2018-07-28T11:36:44.100Z,4.30
2018-07-28T11:39:17.315Z,3.92
2018-07-28T11:41:51.012Z,4.62
2018-07-28T11:44:30.327Z,4.57
2018-07-28T11:46:57.895Z,3.72
2018-07-28T11:49:25.484Z,3.75
2018-07-28T11:51:53.089Z,3.95
2018-07-28T11:54:20.749Z,4.03
2018-07-28T11:56:48.367Z,3.50
2018-07-28T11:59:15.932Z,3.37
2018-07-28T12:01:43.651Z,3.12
2018-07-28T12:04:11.428Z,3.22
2018-07-28T12:06:38.992Z,3.60
2018-07-28T12:09:06.858Z,3.00
2018-07-28T12:11:34.440Z,3.10
2018-07-28T12:14:01.960Z,4.50
2018-07-28T12:16:29.707Z,3.20
2018-07-28T12:18:57.290Z,3.33
2018-07-28T12:21:24.947Z,3.17
2018-07-28T12:23:52.677Z,3.70
2018-07-28T12:26:20.239Z,3.45
2018-07-28T12:28:47.783Z,3.25
2018-07-28T12:31:15.375Z,3.27
2018-07-28T12:33:43.080Z,3.75
2018-07-28T12:36:10.724Z,3.65
2018-07-28T12:38:38.261Z,3.17
2018-07-28T12:41:05.962Z,4.37
2018-07-28T12:43:33.508Z,3.20
2018-07-28T12:46:01.054Z,3.40
2018-07-28T12:48:28.888Z,3.30
2018-07-28T12:50:56.567Z,3.35
2018-07-28T12:53:40.459Z,3.15
2018-07-28T12:56:08.252Z,2.83
2018-07-28T12:58:35.871Z,2.83
2018-07-28T13:01:03.468Z,3.20
2018-07-28T13:03:34.558Z,3.67
2018-07-28T13:06:06.776Z,3.40
2018-07-28T13:08:34.689Z,2.98
2018-07-28T13:11:02.633Z,3.00
2018-07-28T13:13:30.308Z,3.22
2018-07-28T13:15:57.946Z,3.40
2018-07-28T13:18:25.531Z,2.67
2018-07-28T13:20:53.868Z,2.83
2018-07-28T13:23:28.391Z,2.87
2018-07-28T13:26:02.274Z,4.20
2018-07-28T13:28:35.681Z,2.92
2018-07-28T13:31:05.044Z,2.35
2018-07-28T13:33:35.435Z,3.50
2018-07-28T13:36:03.596Z,2.95
2018-07-28T13:38:39.488Z,2.87
2018-07-28T13:41:08.481Z,2.90
2018-07-28T13:43:37.635Z,2.58
2018-07-28T13:46:11.314Z,2.62
2018-07-28T13:48:38.874Z,2.75
2018-07-28T13:51:06.512Z,2.72
2018-07-28T13:53:34.060Z,2.65
2018-07-28T13:56:01.644Z,2.72
2018-07-28T13:58:31.232Z,2.87
2018-07-28T14:00:58.801Z,3.20
2018-07-28T14:03:26.567Z,2.93
2018-07-28T14:05:54.128Z,3.30
2018-07-28T14:08:21.671Z,3.50
2018-07-28T14:10:49.509Z,3.83
2018-07-28T14:13:17.136Z,3.33
2018-07-28T14:15:45.009Z,3.47
2018-07-28T14:18:12.700Z,3.57
2018-07-28T14:20:40.327Z,3.57
2018-07-28T14:23:08.003Z,3.90
2018-07-28T14:25:35.584Z,3.10
2018-07-28T14:28:03.129Z,3.47
2018-07-28T14:30:30.687Z,3.77
2018-07-28T14:32:58.619Z,3.60
2018-07-28T14:35:26.341Z,3.47
2018-07-28T14:37:53.943Z,3.30
2018-07-28T14:40:21.564Z,3.00
2018-07-28T14:42:49.250Z,3.30
2018-07-28T14:45:16.847Z,3.20
2018-07-28T14:47:46.078Z,3.33
2018-07-28T14:50:14.308Z,3.37
2018-07-28T14:52:43.283Z,2.97
2018-07-28T14:55:11.506Z,3.10
2018-07-28T14:57:40.698Z,2.90
2018-07-28T15:00:08.442Z,3.57
2018-07-28T15:02:36.027Z,3.47
2018-07-28T15:05:03.834Z,3.50
2018-07-28T15:07:31.857Z,3.30
2018-07-28T15:09:59.488Z,2.83
2018-07-28T15:12:27.075Z,3.60
2018-07-28T15:14:55.302Z,3.30
2018-07-28T15:17:23.119Z,3.40
2018-07-28T15:19:50.790Z,3.30
2018-07-28T15:22:18.391Z,3.83
2018-07-28T15:24:50.227Z,3.67
2018-07-28T15:27:18.001Z,3.80
2018-07-28T15:29:45.565Z,4.00
2018-07-28T15:32:13.156Z,3.20
2018-07-28T15:34:40.776Z,3.47
2018-07-28T15:37:08.456Z,3.77
2018-07-28T15:39:36.456Z,3.90
2018-07-28T15:42:04.055Z,4.10
2018-07-28T15:44:32.081Z,3.87
2018-07-28T15:46:59.674Z,4.20
2018-07-28T15:49:27.299Z,3.33
2018-07-28T15:51:55.006Z,3.63
2018-07-28T15:54:22.527Z,3.60
2018-07-28T15:56:50.107Z,3.00
2018-07-28T15:59:17.762Z,3.27
2018-07-28T16:01:50.067Z,3.50
2018-07-28T16:04:17.659Z,3.77
2018-07-28T16:06:45.199Z,3.40
2018-07-28T16:09:12.772Z,3.13
2018-07-28T16:11:40.420Z,3.30
2018-07-28T16:14:08.348Z,3.57
2018-07-28T16:16:35.919Z,3.57
2018-07-28T16:19:03.583Z,4.13
2018-07-28T16:21:31.163Z,3.60
2018-07-28T16:23:59.167Z,3.97
2018-07-28T16:26:26.763Z,3.47
2018-07-28T16:28:54.860Z,2.97
2018-07-28T16:31:22.379Z,3.27
2018-07-28T16:33:49.971Z,3.20
2018-07-28T16:36:17.538Z,3.00
2018-07-28T16:38:45.181Z,3.27
2018-07-28T16:41:14.967Z,3.50
2018-07-28T16:43:43.024Z,3.40
2018-07-28T16:46:10.583Z,4.03
2018-07-28T16:48:38.157Z,4.00
2018-07-28T16:51:05.942Z,4.53
2018-07-28T16:53:33.491Z,3.30
2018-07-28T16:56:01.081Z,4.17
2018-07-28T16:58:28.758Z,3.97
2018-07-28T17:00:56.535Z,3.43
2018-07-28T17:03:26.195Z,4.10
2018-07-28T17:05:54.108Z,4.10
2018-07-28T17:08:21.781Z,3.80
2018-07-28T17:10:55.323Z,4.17
2018-07-28T17:13:22.906Z,3.87
2018-07-28T17:15:50.584Z,4.23
2018-07-28T17:18:22.071Z,3.97
2018-07-28T17:20:49.764Z,3.90
2018-07-28T17:23:18.744Z,4.50
2018-07-28T17:25:46.310Z,4.50
2018-07-28T17:28:13.870Z,4.73
2018-07-28T17:30:44.653Z,3.70
2018-07-28T17:33:12.284Z,5.30
2018-07-28T17:35:40.054Z,4.37
2018-07-28T17:38:07.892Z,4.40
2018-07-28T17:40:35.482Z,5.73
2018-07-28T17:43:03.081Z,4.90
2018-07-28T17:45:30.687Z,4.27
2018-07-28T17:47:58.246Z,4.33
2018-07-28T17:50:25.854Z,5.23
2018-07-28T17:52:53.440Z,4.83
2018-07-28T17:55:21.012Z,4.90
2018-07-28T17:57:48.640Z,4.43
2018-07-28T18:00:16.356Z,4.70
2018-07-28T18:02:44.126Z,5.20
2018-07-28T18:05:11.695Z,4.70
2018-07-28T18:07:39.321Z,5.13
2018-07-28T18:10:07.591Z,5.90
2018-07-28T18:12:35.130Z,4.67
2018-07-28T18:15:03.094Z,4.83
2018-07-28T18:17:30.661Z,5.27
2018-07-28T18:19:58.424Z,4.63
2018-07-28T18:22:25.957Z,4.40
2018-07-28T18:24:53.563Z,4.87
2018-07-28T18:27:21.207Z,4.97
2018-07-28T18:29:48.728Z,4.40
2018-07-28T18:32:16.480Z,5.10
2018-07-28T18:34:44.483Z,5.17
2018-07-28T18:37:12.083Z,5.67
2018-07-28T18:39:39.671Z,5.93
2018-07-28T18:42:07.271Z,5.57
2018-07-28T18:44:34.842Z,5.43
2018-07-28T18:47:02.456Z,5.63
2018-07-28T18:49:30.180Z,4.67
2018-07-28T18:51:57.709Z,4.97
2018-07-28T18:54:25.296Z,4.63
2018-07-28T18:56:52.860Z,4.03
2018-07-28T18:59:20.472Z,5.10
2018-07-28T19:01:48.176Z,4.80
2018-07-28T19:04:15.821Z,5.60
2018-07-28T19:06:43.412Z,6.27
2018-07-28T19:09:16.647Z,4.60
2018-07-28T19:11:44.345Z,5.43
2018-07-28T19:14:17.857Z,4.87
2018-07-28T19:16:45.569Z,4.90
2018-07-28T19:19:14.228Z,4.60
2018-07-28T19:21:42.188Z,5.73
2018-07-28T19:24:09.829Z,6.03
2018-07-28T19:26:37.427Z,6.17
2018-07-28T19:29:10.848Z,6.37
2018-07-28T19:31:38.467Z,6.40
2018-07-28T19:34:06.011Z,4.83
2018-07-28T19:36:39.669Z,6.20
2018-07-28T19:39:08.571Z,5.40
2018-07-28T19:41:41.857Z,5.83
2018-07-28T19:44:10.049Z,5.03
2018-07-28T19:46:37.856Z,5.47
2018-07-28T19:49:05.728Z,5.27
2018-07-28T19:51:33.326Z,5.53
2018-07-28T19:54:01.125Z,6.03
2018-07-28T19:56:29.719Z,5.67
2018-07-28T19:58:57.352Z,6.77
2018-07-28T20:01:24.947Z,6.80
2018-07-28T20:03:52.527Z,6.23
2018-07-28T20:06:20.225Z,6.10
2018-07-28T20:08:47.764Z,5.97
2018-07-28T20:11:15.427Z,5.80
2018-07-28T20:13:43.165Z,4.90
2018-07-28T20:16:10.756Z,6.30
2018-07-28T20:18:38.287Z,5.07
2018-07-28T20:21:05.851Z,6.20
2018-07-28T20:23:33.416Z,6.20
2018-07-28T20:26:00.961Z,5.93
2018-07-28T20:28:28.670Z,5.73
2018-07-28T20:30:56.639Z,5.50
2018-07-28T20:33:24.315Z,5.53
2018-07-28T20:35:52.245Z,6.10
2018-07-28T20:38:19.842Z,5.57
2018-07-28T20:40:47.727Z,6.30
2018-07-28T20:43:15.290Z,6.23
2018-07-28T20:45:43.708Z,5.30
2018-07-28T20:48:12.264Z,5.87
2018-07-28T20:50:39.934Z,7.33
2018-07-28T20:53:07.602Z,5.97
2018-07-28T20:55:35.334Z,5.97
2018-07-28T20:58:05.131Z,5.60
2018-07-28T21:00:32.645Z,6.13
2018-07-28T21:03:00.212Z,6.13
2018-07-28T21:05:27.766Z,6.97
2018-07-28T21:07:55.321Z,6.00
2018-07-28T21:10:22.945Z,5.33
2018-07-28T21:12:50.527Z,4.87
2018-07-28T21:15:18.143Z,5.10
2018-07-28T21:17:45.709Z,5.20
2018-07-28T21:20:13.364Z,6.37
2018-07-28T21:22:40.959Z,5.87
2018-07-28T21:25:08.577Z,5.30
2018-07-28T21:27:36.918Z,5.90
2018-07-28T21:30:04.779Z,5.60
2018-07-28T21:32:32.371Z,6.00
2018-07-28T21:35:00.135Z,5.97
2018-07-28T21:37:27.740Z,6.57
2018-07-28T21:39:55.299Z,6.77
2018-07-28T21:42:22.893Z,5.10
2018-07-28T21:44:50.527Z,6.43
2018-07-28T21:47:18.140Z,6.70
2018-07-28T21:49:45.686Z,5.80
2018-07-28T21:52:13.360Z,6.00
2018-07-28T21:54:41.149Z,5.50
2018-07-28T21:57:08.740Z,5.80
2018-07-28T21:59:36.356Z,6.70
2018-07-28T22:02:03.933Z,6.23
2018-07-28T22:04:34.826Z,6.60
2018-07-28T22:07:02.460Z,6.03
2018-07-28T22:09:30.044Z,6.77
2018-07-28T22:11:57.727Z,5.97
2018-07-28T22:14:25.345Z,5.93
2018-07-28T22:16:52.922Z,5.90
2018-07-28T22:19:20.641Z,5.40
2018-07-28T22:21:48.445Z,5.53
2018-07-28T22:24:16.167Z,6.80
2018-07-28T22:26:43.952Z,5.33
2018-07-28T22:29:11.504Z,4.93
2018-07-28T22:31:39.325Z,6.10
2018-07-28T22:34:07.195Z,5.70
2018-07-28T22:36:34.813Z,5.20
2018-07-28T22:39:02.475Z,6.50
2018-07-28T22:41:30.117Z,5.80
2018-07-28T22:43:57.891Z,6.67
2018-07-28T22:46:25.516Z,7.00
2018-07-28T22:48:53.075Z,7.43
2018-07-28T22:51:20.636Z,6.10
2018-07-28T22:53:48.259Z,7.10
2018-07-28T22:56:15.827Z,7.10
2018-07-28T22:58:43.386Z,5.17
2018-07-28T23:01:11.036Z,5.83
2018-07-28T23:03:38.606Z,7.00
2018-07-28T23:06:06.204Z,6.60
2018-07-28T23:08:33.775Z,5.70
2018-07-28T23:11:03.385Z,6.20
2018-07-28T23:13:30.915Z,5.93
2018-07-28T23:15:58.687Z,6.77
2018-07-28T23:18:26.242Z,5.67
2018-07-28T23:20:53.840Z,6.33
2018-07-28T23:23:21.450Z,4.47
2018-07-28T23:25:49.067Z,4.83
2018-07-28T23:28:16.960Z,6.50
2018-07-28T23:30:44.561Z,6.30
2018-07-28T23:33:12.169Z,5.27
2018-07-28T23:35:39.743Z,5.73
2018-07-28T23:38:07.323Z,4.77
2018-07-28T23:40:36.008Z,4.03
2018-07-28T23:43:03.595Z,3.70
2018-07-28T23:45:31.127Z,3.10
2018-07-28T23:47:58.702Z,2.57
2018-07-28T23:50:26.291Z,2.83
2018-07-28T23:52:53.884Z,3.00
2018-07-28T23:55:21.440Z,3.17
2018-07-28T23:57:49.053Z,5.17
